sensor_id;sensor_type;location;lat;lon;timestamp;pressure;altitude;pressure_sealevel;temperature;humidity
63405;BME280;49541;57.840;12.306;2023-12-20T00:04:12;99106.41;;;4.22;100.00
63405;BME280;49541;57.840;12.306;2023-12-20T00:09:12;99107.97;;;4.34;100.00
63405;BME280;49541;57.840;12.306;2023-12-20T00:14:12;99083.13;;;4.27;100.00
63405;BME280;49541;57.840;12.306;2023-12-20T00:19:13;99076.03;;;4.48;100.00
63405;BME280;49541;57.840;12.306;2023-12-20T00:24:13;99068.41;;;4.76;100.00
63405;BME280;49541;57.840;12.306;2023-12-20T00:29:13;99055.16;;;4.66;100.00
63405;BME280;49541;57.840;12.306;2023-12-20T00:34:13;99040.31;;;4.65;100.00
63405;BME280;49541;57.840;12.306;2023-12-20T00:39:13;99034.53;;;4.81;100.00
63405;BME280;49541;57.840;12.306;2023-12-20T00:44:13;99038.41;;;4.77;100.00
63405;BME280;49541;57.840;12.306;2023-12-20T00:49:14;99036.31;;;4.71;100.00
63405;BME280;49541;57.840;12.306;2023-12-20T00:54:14;99038.50;;;4.56;100.00
63405;BME280;49541;57.840;12.306;2023-12-20T00:59:16;99023.94;;;4.62;100.00
63405;BME280;49541;57.840;12.306;2023-12-20T01:04:16;99014.84;;;4.76;100.00
63405;BME280;49541;57.840;12.306;2023-12-20T01:09:16;99003.06;;;4.89;100.00
63405;BME280;49541;57.840;12.306;2023-12-20T01:14:16;98991.84;;;5.07;100.00
63405;BME280;49541;57.840;12.306;2023-12-20T01:19:16;98982.41;;;5.04;100.00
63405;BME280;49541;57.840;12.306;2023-12-20T01:24:17;98979.44;;;4.88;100.00
63405;BME280;49541;57.840;12.306;2023-12-20T01:29:17;98974.06;;;4.89;100.00
63405;BME280;49541;57.840;12.306;2023-12-20T01:34:17;98970.75;;;4.97;100.00
63405;BME280;49541;57.840;12.306;2023-12-20T01:39:17;98958.47;;;4.77;100.00
63405;BME280;49541;57.840;12.306;2023-12-20T01:44:18;98935.69;;;4.66;100.00
63405;BME280;49541;57.840;12.306;2023-12-20T01:49:18;98922.34;;;4.48;100.00
63405;BME280;49541;57.840;12.306;2023-12-20T01:54:18;98910.41;;;4.54;100.00
63405;BME280;49541;57.840;12.306;2023-12-20T01:59:19;98901.81;;;4.51;100.00
63405;BME280;49541;57.840;12.306;2023-12-20T02:04:20;98892.78;;;4.44;100.00
63405;BME280;49541;57.840;12.306;2023-12-20T02:09:20;98879.06;;;4.50;100.00
63405;BME280;49541;57.840;12.306;2023-12-20T02:14:21;98866.34;;;4.65;100.00
63405;BME280;49541;57.840;12.306;2023-12-20T02:19:21;98862.59;;;4.87;100.00
63405;BME280;49541;57.840;12.306;2023-12-20T02:24:21;98858.56;;;4.83;100.00
63405;BME280;49541;57.840;12.306;2023-12-20T02:29:21;98848.84;;;4.93;100.00
63405;BME280;49541;57.840;12.306;2023-12-20T02:34:23;98837.19;;;4.77;100.00
63405;BME280;49541;57.840;12.306;2023-12-20T02:39:23;98837.34;;;4.85;100.00
63405;BME280;49541;57.840;12.306;2023-12-20T02:44:23;98811.41;;;4.80;100.00
63405;BME280;49541;57.840;12.306;2023-12-20T02:49:24;98814.84;;;4.61;100.00
63405;BME280;49541;57.840;12.306;2023-12-20T02:54:24;98802.78;;;4.59;100.00
63405;BME280;49541;57.840;12.306;2023-12-20T02:59:24;98780.84;;;4.48;100.00
63405;BME280;49541;57.840;12.306;2023-12-20T03:04:24;98782.78;;;4.46;100.00
63405;BME280;49541;57.840;12.306;2023-12-20T03:09:25;98779.75;;;4.51;100.00
63405;BME280;49541;57.840;12.306;2023-12-20T03:14:25;98759.38;;;4.43;100.00
63405;BME280;49541;57.840;12.306;2023-12-20T03:19:25;98755.19;;;4.50;100.00
63405;BME280;49541;57.840;12.306;2023-12-20T03:24:26;98744.66;;;4.41;100.00
63405;BME280;49541;57.840;12.306;2023-12-20T03:29:26;98734.81;;;4.53;100.00
63405;BME280;49541;57.840;12.306;2023-12-20T03:34:26;98745.34;;;4.53;100.00
63405;BME280;49541;57.840;12.306;2023-12-20T03:39:26;98717.34;;;4.42;100.00
63405;BME280;49541;57.840;12.306;2023-12-20T03:44:26;98729.41;;;4.35;100.00
63405;BME280;49541;57.840;12.306;2023-12-20T03:49:26;98733.56;;;4.18;100.00
63405;BME280;49541;57.840;12.306;2023-12-20T03:54:27;98747.84;;;4.25;100.00
63405;BME280;49541;57.840;12.306;2023-12-20T03:59:27;98742.69;;;4.14;100.00
63405;BME280;49541;57.840;12.306;2023-12-20T04:04:27;98703.75;;;4.27;100.00
63405;BME280;49541;57.840;12.306;2023-12-20T04:09:27;98709.16;;;4.35;100.00
63405;BME280;49541;57.840;12.306;2023-12-20T04:14:28;98694.31;;;4.44;100.00
63405;BME280;49541;57.840;12.306;2023-12-20T04:19:28;98675.16;;;4.32;100.00
63405;BME280;49541;57.840;12.306;2023-12-20T04:24:28;98669.66;;;4.16;100.00
63405;BME280;49541;57.840;12.306;2023-12-20T04:29:28;98671.03;;;4.20;100.00
63405;BME280;49541;57.840;12.306;2023-12-20T04:34:28;98673.53;;;4.31;100.00
63405;BME280;49541;57.840;12.306;2023-12-20T04:39:29;98671.56;;;4.23;100.00
63405;BME280;49541;57.840;12.306;2023-12-20T04:44:29;98682.66;;;3.88;100.00
63405;BME280;49541;57.840;12.306;2023-12-20T04:49:29;98661.31;;;4.01;100.00
63405;BME280;49541;57.840;12.306;2023-12-20T04:54:29;98644.41;;;3.94;100.00
63405;BME280;49541;57.840;12.306;2023-12-20T04:59:29;98640.25;;;4.01;100.00
63405;BME280;49541;57.840;12.306;2023-12-20T05:04:30;98629.72;;;4.10;100.00
63405;BME280;49541;57.840;12.306;2023-12-20T05:09:30;98631.09;;;4.05;100.00
63405;BME280;49541;57.840;12.306;2023-12-20T05:14:30;98608.91;;;4.17;100.00
63405;BME280;49541;57.840;12.306;2023-12-20T05:19:30;98600.75;;;4.20;100.00
63405;BME280;49541;57.840;12.306;2023-12-20T05:24:31;98594.91;;;4.26;100.00
63405;BME280;49541;57.840;12.306;2023-12-20T05:29:31;98591.63;;;4.62;100.00
63405;BME280;49541;57.840;12.306;2023-12-20T05:34:31;98583.94;;;4.31;100.00
63405;BME280;49541;57.840;12.306;2023-12-20T05:39:32;98577.28;;;4.27;100.00
63405;BME280;49541;57.840;12.306;2023-12-20T05:44:32;98575.91;;;4.33;100.00
63405;BME280;49541;57.840;12.306;2023-12-20T05:49:32;98557.38;;;4.62;100.00
63405;BME280;49541;57.840;12.306;2023-12-20T05:54:32;98558.22;;;4.53;100.00
63405;BME280;49541;57.840;12.306;2023-12-20T05:59:32;98540.59;;;4.63;100.00
63405;BME280;49541;57.840;12.306;2023-12-20T06:04:32;98544.19;;;4.62;100.00
63405;BME280;49541;57.840;12.306;2023-12-20T06:09:33;98545.94;;;4.34;100.00
63405;BME280;49541;57.840;12.306;2023-12-20T06:14:33;98535.66;;;4.40;100.00
63405;BME280;49541;57.840;12.306;2023-12-20T06:19:33;98540.66;;;4.43;100.00
63405;BME280;49541;57.840;12.306;2023-12-20T06:24:33;98530.25;;;4.42;100.00
63405;BME280;49541;57.840;12.306;2023-12-20T06:29:34;98531.69;;;4.64;100.00
63405;BME280;49541;57.840;12.306;2023-12-20T06:34:34;98525.41;;;4.37;100.00
63405;BME280;49541;57.840;12.306;2023-12-20T06:39:35;98523.22;;;4.33;100.00
63405;BME280;49541;57.840;12.306;2023-12-20T06:44:35;98525.63;;;4.54;100.00
63405;BME280;49541;57.840;12.306;2023-12-20T06:49:36;98511.28;;;4.66;100.00
63405;BME280;49541;57.840;12.306;2023-12-20T06:54:36;98494.59;;;4.47;100.00
63405;BME280;49541;57.840;12.306;2023-12-20T06:59:40;98488.63;;;4.73;100.00
63405;BME280;49541;57.840;12.306;2023-12-20T07:04:40;98486.50;;;4.59;100.00
63405;BME280;49541;57.840;12.306;2023-12-20T07:09:41;98489.03;;;4.50;100.00
63405;BME280;49541;57.840;12.306;2023-12-20T07:14:42;98482.94;;;4.50;100.00
63405;BME280;49541;57.840;12.306;2023-12-20T07:19:43;98475.47;;;4.45;100.00
63405;BME280;49541;57.840;12.306;2023-12-20T07:24:43;98478.34;;;4.52;100.00
63405;BME280;49541;57.840;12.306;2023-12-20T07:29:43;98468.31;;;4.56;100.00
63405;BME280;49541;57.840;12.306;2023-12-20T07:34:43;98475.66;;;4.62;100.00
63405;BME280;49541;57.840;12.306;2023-12-20T07:39:44;98468.75;;;4.61;100.00
63405;BME280;49541;57.840;12.306;2023-12-20T07:44:44;98478.97;;;4.64;100.00
63405;BME280;49541;57.840;12.306;2023-12-20T07:49:44;98477.03;;;4.66;100.00
63405;BME280;49541;57.840;12.306;2023-12-20T07:54:44;98468.53;;;4.44;100.00
63405;BME280;49541;57.840;12.306;2023-12-20T07:59:45;98476.53;;;4.53;100.00
63405;BME280;49541;57.840;12.306;2023-12-20T08:04:45;98467.09;;;4.22;100.00
63405;BME280;49541;57.840;12.306;2023-12-20T08:09:45;98458.06;;;4.25;100.00
63405;BME280;49541;57.840;12.306;2023-12-20T08:14:45;98456.41;;;4.24;100.00
63405;BME280;49541;57.840;12.306;2023-12-20T08:19:46;98462.94;;;4.20;100.00
63405;BME280;49541;57.840;12.306;2023-12-20T08:24:46;98465.16;;;4.15;100.00
63405;BME280;49541;57.840;12.306;2023-12-20T08:29:46;98473.06;;;4.15;100.00
63405;BME280;49541;57.840;12.306;2023-12-20T08:34:47;98452.28;;;4.12;100.00
63405;BME280;49541;57.840;12.306;2023-12-20T08:39:47;98442.84;;;4.19;100.00
63405;BME280;49541;57.840;12.306;2023-12-20T08:44:47;98448.34;;;4.25;100.00
63405;BME280;49541;57.840;12.306;2023-12-20T08:49:47;98435.94;;;4.18;100.00
63405;BME280;49541;57.840;12.306;2023-12-20T08:54:47;98435.72;;;4.29;100.00
63405;BME280;49541;57.840;12.306;2023-12-20T08:59:48;98438.06;;;4.32;100.00
63405;BME280;49541;57.840;12.306;2023-12-20T09:04:49;98435.78;;;4.47;100.00
63405;BME280;49541;57.840;12.306;2023-12-20T09:09:49;98436.88;;;4.54;100.00
63405;BME280;49541;57.840;12.306;2023-12-20T09:14:50;98439.84;;;4.41;100.00
63405;BME280;49541;57.840;12.306;2023-12-20T09:19:51;98443.00;;;4.45;100.00
63405;BME280;49541;57.840;12.306;2023-12-20T09:24:53;98451.34;;;4.40;100.00
63405;BME280;49541;57.840;12.306;2023-12-20T09:29:54;98449.19;;;4.54;100.00
63405;BME280;49541;57.840;12.306;2023-12-20T09:34:54;98449.31;;;4.62;100.00
63405;BME280;49541;57.840;12.306;2023-12-20T09:39:54;98432.53;;;4.63;100.00
63405;BME280;49541;57.840;12.306;2023-12-20T09:44:55;98425.13;;;4.66;100.00
63405;BME280;49541;57.840;12.306;2023-12-20T09:49:56;98423.19;;;4.68;100.00
63405;BME280;49541;57.840;12.306;2023-12-20T09:54:56;98412.00;;;4.84;100.00
63405;BME280;49541;57.840;12.306;2023-12-20T09:59:57;98427.81;;;4.84;100.00
63405;BME280;49541;57.840;12.306;2023-12-20T10:04:57;98411.81;;;4.68;100.00
63405;BME280;49541;57.840;12.306;2023-12-20T10:09:58;98412.00;;;4.84;100.00
63405;BME280;49541;57.840;12.306;2023-12-20T10:14:58;98407.47;;;4.95;100.00
63405;BME280;49541;57.840;12.306;2023-12-20T10:19:59;98402.81;;;5.06;100.00
63405;BME280;49541;57.840;12.306;2023-12-20T10:25:00;98389.91;;;5.03;100.00
63405;BME280;49541;57.840;12.306;2023-12-20T10:30:00;98388.25;;;5.20;100.00
63405;BME280;49541;57.840;12.306;2023-12-20T10:35:00;98378.22;;;5.24;100.00
63405;BME280;49541;57.840;12.306;2023-12-20T10:40:00;98385.31;;;5.23;100.00
63405;BME280;49541;57.840;12.306;2023-12-20T10:45:03;98380.28;;;5.12;100.00
63405;BME280;49541;57.840;12.306;2023-12-20T10:50:03;98381.25;;;5.11;100.00
63405;BME280;49541;57.840;12.306;2023-12-20T10:55:05;98378.41;;;4.86;100.00
63405;BME280;49541;57.840;12.306;2023-12-20T11:00:06;98384.41;;;4.97;100.00
63405;BME280;49541;57.840;12.306;2023-12-20T11:05:19;98380.59;;;4.91;100.00
63405;BME280;49541;57.840;12.306;2023-12-20T11:10:30;98377.41;;;4.87;100.00
63405;BME280;49541;57.840;12.306;2023-12-20T11:15:31;98363.84;;;5.00;100.00
63405;BME280;49541;57.840;12.306;2023-12-20T11:20:38;98368.81;;;4.85;100.00
63405;BME280;49541;57.840;12.306;2023-12-20T11:25:45;98376.97;;;4.92;100.00
63405;BME280;49541;57.840;12.306;2023-12-20T11:30:46;98358.03;;;4.97;100.00
63405;BME280;49541;57.840;12.306;2023-12-20T11:35:47;98361.94;;;4.92;100.00
63405;BME280;49541;57.840;12.306;2023-12-20T11:40:50;98351.72;;;4.89;100.00
63405;BME280;49541;57.840;12.306;2023-12-20T11:45:50;98345.84;;;4.96;100.00
63405;BME280;49541;57.840;12.306;2023-12-20T11:50:51;98332.22;;;5.00;100.00
63405;BME280;49541;57.840;12.306;2023-12-20T11:55:51;98330.94;;;4.86;100.00
63405;BME280;49541;57.840;12.306;2023-12-20T12:00:52;98320.53;;;5.03;100.00
63405;BME280;49541;57.840;12.306;2023-12-20T12:05:52;98312.78;;;5.01;100.00
63405;BME280;49541;57.840;12.306;2023-12-20T12:10:52;98308.50;;;4.82;100.00
63405;BME280;49541;57.840;12.306;2023-12-20T12:15:53;98322.56;;;4.91;100.00
63405;BME280;49541;57.840;12.306;2023-12-20T12:20:59;98319.16;;;4.99;100.00
63405;BME280;49541;57.840;12.306;2023-12-20T12:25:59;98314.97;;;4.70;100.00
63405;BME280;49541;57.840;12.306;2023-12-20T12:31:03;98310.50;;;4.70;100.00
63405;BME280;49541;57.840;12.306;2023-12-20T12:36:03;98307.72;;;4.36;100.00
63405;BME280;49541;57.840;12.306;2023-12-20T12:41:06;98312.53;;;4.41;100.00
63405;BME280;49541;57.840;12.306;2023-12-20T12:46:07;98303.06;;;4.48;100.00
63405;BME280;49541;57.840;12.306;2023-12-20T12:51:07;98302.47;;;4.54;100.00
63405;BME280;49541;57.840;12.306;2023-12-20T12:56:12;98297.25;;;4.62;100.00
63405;BME280;49541;57.840;12.306;2023-12-20T13:01:12;98299.22;;;4.60;100.00
63405;BME280;49541;57.840;12.306;2023-12-20T13:06:13;98298.75;;;4.29;100.00
63405;BME280;49541;57.840;12.306;2023-12-20T13:11:13;98310.88;;;4.40;100.00
63405;BME280;49541;57.840;12.306;2023-12-20T13:16:13;98313.44;;;4.49;100.00
63405;BME280;49541;57.840;12.306;2023-12-20T13:21:14;98314.41;;;4.30;100.00
63405;BME280;49541;57.840;12.306;2023-12-20T13:26:14;98307.25;;;4.23;100.00
63405;BME280;49541;57.840;12.306;2023-12-20T13:31:14;98306.47;;;4.13;100.00
63405;BME280;49541;57.840;12.306;2023-12-20T13:36:14;98313.97;;;4.07;100.00
63405;BME280;49541;57.840;12.306;2023-12-20T13:41:15;98312.94;;;4.18;100.00
63405;BME280;49541;57.840;12.306;2023-12-20T13:46:15;98311.56;;;4.42;100.00
63405;BME280;49541;57.840;12.306;2023-12-20T13:51:15;98309.47;;;4.63;100.00
63405;BME280;49541;57.840;12.306;2023-12-20T13:56:15;98303.34;;;4.45;100.00
63405;BME280;49541;57.840;12.306;2023-12-20T14:01:16;98295.94;;;4.13;100.00
63405;BME280;49541;57.840;12.306;2023-12-20T14:06:16;98300.59;;;4.19;100.00
63405;BME280;49541;57.840;12.306;2023-12-20T14:11:17;98306.47;;;4.13;100.00
63405;BME280;49541;57.840;12.306;2023-12-20T14:16:19;98293.84;;;3.88;100.00
63405;BME280;49541;57.840;12.306;2023-12-20T14:21:19;98301.88;;;4.15;100.00
63405;BME280;49541;57.840;12.306;2023-12-20T14:26:19;98303.13;;;3.83;100.00
63405;BME280;49541;57.840;12.306;2023-12-20T14:31:20;98305.03;;;4.00;100.00
63405;BME280;49541;57.840;12.306;2023-12-20T14:36:21;98311.69;;;3.95;100.00
63405;BME280;49541;57.840;12.306;2023-12-20T14:41:21;98314.47;;;3.93;100.00
63405;BME280;49541;57.840;12.306;2023-12-20T14:46:24;98306.56;;;3.93;100.00
63405;BME280;49541;57.840;12.306;2023-12-20T14:51:24;98314.88;;;3.61;100.00
63405;BME280;49541;57.840;12.306;2023-12-20T14:56:25;98322.63;;;3.62;100.00
63405;BME280;49541;57.840;12.306;2023-12-20T15:01:26;98328.38;;;3.76;100.00
63405;BME280;49541;57.840;12.306;2023-12-20T15:06:26;98332.53;;;3.31;100.00
63405;BME280;49541;57.840;12.306;2023-12-20T15:11:26;98337.53;;;3.34;100.00
63405;BME280;49541;57.840;12.306;2023-12-20T15:16:26;98343.72;;;3.43;100.00
63405;BME280;49541;57.840;12.306;2023-12-20T15:21:27;98340.97;;;3.44;100.00
63405;BME280;49541;57.840;12.306;2023-12-20T15:26:32;98341.78;;;3.35;100.00
63405;BME280;49541;57.840;12.306;2023-12-20T15:31:33;98344.41;;;3.45;100.00
63405;BME280;49541;57.840;12.306;2023-12-20T15:36:33;98342.38;;;3.76;100.00
63405;BME280;49541;57.840;12.306;2023-12-20T15:41:33;98337.28;;;3.75;100.00
63405;BME280;49541;57.840;12.306;2023-12-20T15:46:33;98342.06;;;3.89;100.00
63405;BME280;49541;57.840;12.306;2023-12-20T15:51:33;98346.50;;;3.88;100.00
63405;BME280;49541;57.840;12.306;2023-12-20T15:56:35;98342.06;;;3.89;100.00
63405;BME280;49541;57.840;12.306;2023-12-20T16:01:36;98338.53;;;3.71;100.00
63405;BME280;49541;57.840;12.306;2023-12-20T16:06:36;98335.53;;;3.46;100.00
63405;BME280;49541;57.840;12.306;2023-12-20T16:11:37;98337.38;;;3.36;100.00
63405;BME280;49541;57.840;12.306;2023-12-20T16:16:38;98328.91;;;3.42;100.00
63405;BME280;49541;57.840;12.306;2023-12-20T16:21:38;98333.63;;;3.38;100.00
63405;BME280;49541;57.840;12.306;2023-12-20T16:26:38;98334.19;;;3.22;100.00
63405;BME280;49541;57.840;12.306;2023-12-20T16:31:39;98343.94;;;3.12;100.00
63405;BME280;49541;57.840;12.306;2023-12-20T16:36:49;98342.28;;;3.68;100.00
63405;BME280;49541;57.840;12.306;2023-12-20T16:41:50;98336.16;;;3.67;100.00
63405;BME280;49541;57.840;12.306;2023-12-20T16:46:50;98331.13;;;3.37;100.00
63405;BME280;49541;57.840;12.306;2023-12-20T16:51:50;98343.38;;;3.08;100.00
63405;BME280;49541;57.840;12.306;2023-12-20T16:56:51;98336.97;;;3.31;100.00
63405;BME280;49541;57.840;12.306;2023-12-20T17:01:52;98326.81;;;3.83;100.00
63405;BME280;49541;57.840;12.306;2023-12-20T17:06:52;98330.25;;;4.21;100.00
63405;BME280;49541;57.840;12.306;2023-12-20T17:11:53;98335.13;;;3.88;100.00
63405;BME280;49541;57.840;12.306;2023-12-20T17:16:53;98344.53;;;3.53;100.00
63405;BME280;49541;57.840;12.306;2023-12-20T17:21:53;98355.38;;;3.40;100.00
63405;BME280;49541;57.840;12.306;2023-12-20T17:26:54;98355.13;;;3.14;100.00
63405;BME280;49541;57.840;12.306;2023-12-20T17:31:54;98351.13;;;3.10;100.00
63405;BME280;49541;57.840;12.306;2023-12-20T17:36:54;98361.34;;;3.13;100.00
63405;BME280;49541;57.840;12.306;2023-12-20T17:41:54;98352.63;;;3.13;100.00
63405;BME280;49541;57.840;12.306;2023-12-20T17:46:54;98361.91;;;3.17;100.00
63405;BME280;49541;57.840;12.306;2023-12-20T17:51:55;98367.56;;;3.22;100.00
63405;BME280;49541;57.840;12.306;2023-12-20T17:56:55;98366.31;;;2.97;100.00
63405;BME280;49541;57.840;12.306;2023-12-20T18:01:56;98375.75;;;2.99;100.00
63405;BME280;49541;57.840;12.306;2023-12-20T18:06:57;98373.47;;;2.56;100.00
63405;BME280;49541;57.840;12.306;2023-12-20T18:11:57;98365.31;;;2.49;100.00
63405;BME280;49541;57.840;12.306;2023-12-20T18:16:58;98361.91;;;2.87;100.00
63405;BME280;49541;57.840;12.306;2023-12-20T18:21:59;98354.13;;;3.35;100.00
63405;BME280;49541;57.840;12.306;2023-12-20T18:26:59;98358.16;;;2.61;100.00
63405;BME280;49541;57.840;12.306;2023-12-20T18:31:59;98367.16;;;2.87;100.00
63405;BME280;49541;57.840;12.306;2023-12-20T18:36:59;98356.50;;;2.99;100.00
63405;BME280;49541;57.840;12.306;2023-12-20T18:42:00;98368.00;;;2.78;100.00
63405;BME280;49541;57.840;12.306;2023-12-20T18:47:02;98366.59;;;3.33;100.00
63405;BME280;49541;57.840;12.306;2023-12-20T18:52:03;98355.94;;;3.05;100.00
63405;BME280;49541;57.840;12.306;2023-12-20T18:57:05;98361.22;;;2.85;100.00
63405;BME280;49541;57.840;12.306;2023-12-20T19:02:09;98365.50;;;2.67;100.00
63405;BME280;49541;57.840;12.306;2023-12-20T19:07:11;98364.91;;;2.54;100.00
63405;BME280;49541;57.840;12.306;2023-12-20T19:12:11;98360.50;;;2.64;100.00
63405;BME280;49541;57.840;12.306;2023-12-20T19:17:11;98369.78;;;2.58;100.00
63405;BME280;49541;57.840;12.306;2023-12-20T19:22:11;98369.59;;;2.40;100.00
63405;BME280;49541;57.840;12.306;2023-12-20T19:27:12;98362.84;;;2.48;100.00
63405;BME280;49541;57.840;12.306;2023-12-20T19:32:12;98360.75;;;2.41;100.00
63405;BME280;49541;57.840;12.306;2023-12-20T19:37:12;98355.78;;;2.48;100.00
63405;BME280;49541;57.840;12.306;2023-12-20T19:42:12;98360.47;;;2.35;100.00
63405;BME280;49541;57.840;12.306;2023-12-20T19:47:12;98357.03;;;2.03;100.00
63405;BME280;49541;57.840;12.306;2023-12-20T19:52:13;98362.00;;;1.97;100.00
63405;BME280;49541;57.840;12.306;2023-12-20T19:57:13;98362.28;;;2.03;100.00
63405;BME280;49541;57.840;12.306;2023-12-20T20:02:17;98362.16;;;2.45;100.00
63405;BME280;49541;57.840;12.306;2023-12-20T20:07:17;98359.41;;;2.57;100.00
63405;BME280;49541;57.840;12.306;2023-12-20T20:12:19;98354.84;;;2.69;100.00
63405;BME280;49541;57.840;12.306;2023-12-20T20:17:19;98345.44;;;2.06;100.00
63405;BME280;49541;57.840;12.306;2023-12-20T20:22:20;98348.75;;;1.98;100.00
63405;BME280;49541;57.840;12.306;2023-12-20T20:27:20;98345.19;;;1.78;100.00
63405;BME280;49541;57.840;12.306;2023-12-20T20:32:21;98355.38;;;1.41;100.00
63405;BME280;49541;57.840;12.306;2023-12-20T20:37:22;98367.59;;;1.52;100.00
63405;BME280;49541;57.840;12.306;2023-12-20T20:42:22;98357.19;;;1.71;100.00
63405;BME280;49541;57.840;12.306;2023-12-20T20:47:22;98350.91;;;1.93;100.00
63405;BME280;49541;57.840;12.306;2023-12-20T20:52:22;98342.53;;;1.99;100.00
63405;BME280;49541;57.840;12.306;2023-12-20T20:57:23;98333.00;;;1.98;100.00
63405;BME280;49541;57.840;12.306;2023-12-20T21:02:23;98329.97;;;2.03;100.00
63405;BME280;49541;57.840;12.306;2023-12-20T21:07:24;98324.44;;;2.06;100.00
63405;BME280;49541;57.840;12.306;2023-12-20T21:12:25;98318.34;;;1.96;100.00
63405;BME280;49541;57.840;12.306;2023-12-20T21:17:27;98302.94;;;2.22;100.00
63405;BME280;49541;57.840;12.306;2023-12-20T21:22:27;98306.56;;;2.60;100.00
63405;BME280;49541;57.840;12.306;2023-12-20T21:27:28;98290.25;;;2.46;100.00
63405;BME280;49541;57.840;12.306;2023-12-20T21:32:30;98293.88;;;2.65;100.00
63405;BME280;49541;57.840;12.306;2023-12-20T21:37:30;98283.06;;;2.49;100.00
63405;BME280;49541;57.840;12.306;2023-12-20T21:42:31;98281.28;;;2.59;100.00
63405;BME280;49541;57.840;12.306;2023-12-20T21:47:31;98258.16;;;2.92;100.00
63405;BME280;49541;57.840;12.306;2023-12-20T21:52:31;98256.94;;;1.68;100.00
63405;BME280;49541;57.840;12.306;2023-12-20T21:57:31;98271.47;;;1.41;100.00
63405;BME280;49541;57.840;12.306;2023-12-20T22:02:32;98262.66;;;1.42;100.00
63405;BME280;49541;57.840;12.306;2023-12-20T22:07:32;98276.19;;;1.47;100.00
63405;BME280;49541;57.840;12.306;2023-12-20T22:12:32;98260.41;;;2.28;100.00
63405;BME280;49541;57.840;12.306;2023-12-20T22:17:32;98238.63;;;3.04;100.00
63405;BME280;49541;57.840;12.306;2023-12-20T22:22:32;98228.03;;;2.47;100.00
63405;BME280;49541;57.840;12.306;2023-12-20T22:27:33;98236.19;;;2.54;100.00
63405;BME280;49541;57.840;12.306;2023-12-20T22:32:33;98224.44;;;2.38;100.00
63405;BME280;49541;57.840;12.306;2023-12-20T22:37:33;98231.25;;;1.61;100.00
63405;BME280;49541;57.840;12.306;2023-12-20T22:42:33;98238.13;;;1.22;100.00
63405;BME280;49541;57.840;12.306;2023-12-20T22:47:33;98240.97;;;1.40;100.00
63405;BME280;49541;57.840;12.306;2023-12-20T22:52:34;98243.03;;;1.36;100.00
63405;BME280;49541;57.840;12.306;2023-12-20T22:57:34;98237.34;;;1.31;100.00
63405;BME280;49541;57.840;12.306;2023-12-20T23:02:34;98205.25;;;1.49;100.00
63405;BME280;49541;57.840;12.306;2023-12-20T23:07:34;98197.28;;;1.60;100.00
63405;BME280;49541;57.840;12.306;2023-12-20T23:12:35;98182.16;;;1.83;100.00
63405;BME280;49541;57.840;12.306;2023-12-20T23:17:36;98163.63;;;1.75;100.00
63405;BME280;49541;57.840;12.306;2023-12-20T23:22:36;98168.47;;;2.09;100.00
63405;BME280;49541;57.840;12.306;2023-12-20T23:27:36;98146.91;;;1.76;100.00
63405;BME280;49541;57.840;12.306;2023-12-20T23:32:36;98150.72;;;1.52;100.00
63405;BME280;49541;57.840;12.306;2023-12-20T23:37:37;98150.22;;;2.46;100.00
63405;BME280;49541;57.840;12.306;2023-12-20T23:42:37;98139.91;;;1.96;100.00
63405;BME280;49541;57.840;12.306;2023-12-20T23:47:37;98133.22;;;1.53;100.00
63405;BME280;49541;57.840;12.306;2023-12-20T23:52:38;98131.03;;;2.36;100.00
63405;BME280;49541;57.840;12.306;2023-12-20T23:57:38;98110.47;;;1.73;100.00
